Archival Weather

Fayette Rgnl Air Cntr Arp

Fayette Rgnl Air Cntr Arp, Texas (K3T5)

Report from: Thursday, September 22, 2022 5:55 AM CDT
Current time: Saturday, February 4, 2023 12:31 AM CST

Current weather
Weather history
Weather forecast

Temperature20.8°C (69.4°F)
Dew point20.8°C (69.4°F)
Winds Calm
Visibility7 mi. (11.3 km)
Clouds Sky clear
Altimeter29.99 in.Hg (1016 mB)
Relative humidity100 %
Density altitude931 ft. (284 m)
Remarks Fully automated report
Automated weather observing station with precipitation discriminator
Flight conditions Visual Meteorological Conditions
Raw dataK3T5 221055Z AUTO 00000KT 7SM CLR 21/21 A2999 RMK AO2 T02080208
An unhandled exception has occurred. See browser dev tools for details. Reload 🗙